Time;durP1;ratioP1;P1;durP2;ratioP2;P2;SDS_P1;SDS_P2;PMS_P1;PMS_P2;Temp;Humidity;BMP_temperature;BMP_pressure;BME280_temperature;BME280_humidity;BME280_pressure;Samples;Min_cycle;Max_cycle;Signal;HPM_P1;HPM_P2
2022/05/25 00:02:01;;;;;;;7.30;4.38;;;;;;;;;;4986330;28;20046;-57
2022/05/25 00:04:27;;;;;;;6.15;4.65;;;;;;;;;;4986486;28;20046;-57
2022/05/25 00:06:54;;;;;;;8.30;5.05;;;;;;;;;;4986675;28;20121;-58
2022/05/25 00:09:21;;;;;;;8.00;5.32;;;;;;;;;;4986567;28;20108;-57
2022/05/25 00:11:47;;;;;;;6.57;4.85;;;;;;;;;;4986827;28;20069;-61
2022/05/25 00:14:13;;;;;;;6.05;4.63;;;;;;;;;;4986022;28;20049;-57
2022/05/25 00:16:39;;;;;;;9.27;5.35;;;;;;;;;;4986157;28;20050;-58
2022/05/25 00:21:51;;;;;;;9.85;5.55;;;;;;;;;;4986417;28;20138;-58
2022/05/25 00:24:17;;;;;;;14.82;5.72;;;;;;;;;;4986487;28;20050;-60
2022/05/25 00:26:43;;;;;;;7.07;5.78;;;;;;;;;;4966131;28;20067;-57
2022/05/25 00:29:09;;;;;;;7.32;5.57;;;;;;;;;;4965967;28;20043;-58
2022/05/25 00:31:36;;;;;;;11.35;6.20;;;;;;;;;;4966690;28;20050;-58
2022/05/25 00:34:02;;;;;;;10.05;6.22;;;;;;;;;;4965281;28;20051;-58
2022/05/25 00:36:28;;;;;;;7.75;6.07;;;;;;;;;;4966638;28;20101;-58
2022/05/25 00:38:55;;;;;;;9.57;6.38;;;;;;;;;;4966590;28;20082;-58
2022/05/25 00:41:25;;;;;;;7.75;6.38;;;;;;;;;;4966217;28;20051;-58
2022/05/25 00:43:51;;;;;;;9.75;5.68;;;;;;;;;;4965830;28;20050;-58
2022/05/25 00:46:18;;;;;;;9.32;5.72;;;;;;;;;;4966232;28;20560;-59
2022/05/25 00:48:45;;;;;;;9.75;6.20;;;;;;;;;;4966757;28;20054;-58
2022/05/25 00:51:15;;;;;;;8.15;6.15;;;;;;;;;;4966681;28;20517;-58
2022/05/25 00:53:42;;;;;;;7.93;5.70;;;;;;;;;;4965218;28;20082;-58
2022/05/25 00:56:09;;;;;;;19.67;7.03;;;;;;;;;;4966404;28;20130;-58
2022/05/25 00:58:38;;;;;;;8.40;5.70;;;;;;;;;;4965435;28;20039;-58
2022/05/25 01:01:04;;;;;;;10.65;5.80;;;;;;;;;;4966343;28;20062;-58
2022/05/25 01:03:30;;;;;;;8.57;5.93;;;;;;;;;;4965092;23;20527;-60
2022/05/25 01:06:12;;;;;;;11.05;5.95;;;;;;;;;;4927662;29;20048;-59
2022/05/25 01:08:50;;;;;;;12.07;5.93;;;;;;;;;;4928324;29;20047;-59
2022/05/25 01:11:26;;;;;;;9.68;5.78;;;;;;;;;;4927413;29;20569;-59
2022/05/25 01:14:06;;;;;;;7.95;5.80;;;;;;;;;;4926638;29;20051;-59
2022/05/25 01:16:32;;;;;;;15.15;5.88;;;;;;;;;;4927935;29;20051;-59
2022/05/25 01:19:13;;;;;;;11.57;6.15;;;;;;;;;;4928172;29;20043;-59
2022/05/25 01:21:57;;;;;;;7.18;5.75;;;;;;;;;;4937630;28;20436;-59
2022/05/25 01:24:37;;;;;;;7.97;5.35;;;;;;;;;;4947094;28;20114;-60
2022/05/25 01:27:21;;;;;;;7.55;5.60;;;;;;;;;;4946692;28;20488;-59
2022/05/25 01:30:00;;;;;;;7.97;5.68;;;;;;;;;;4946377;28;20079;-59
2022/05/25 01:32:33;;;;;;;8.00;5.95;;;;;;;;;;4946824;28;20885;-59
2022/05/25 01:35:05;;;;;;;6.97;5.35;;;;;;;;;;4947275;28;20047;-59
2022/05/25 01:37:40;;;;;;;11.63;6.15;;;;;;;;;;4946975;28;20047;-59
2022/05/25 01:40:11;;;;;;;10.05;6.32;;;;;;;;;;4946955;28;20783;-59
2022/05/25 01:42:47;;;;;;;9.65;6.10;;;;;;;;;;4946604;28;20055;-59
2022/05/25 01:45:15;;;;;;;8.70;5.93;;;;;;;;;;4946348;28;20134;-59
2022/05/25 01:47:44;;;;;;;7.82;5.43;;;;;;;;;;4946931;28;20048;-59
2022/05/25 01:50:11;;;;;;;7.30;5.93;;;;;;;;;;4947164;28;20047;-59
2022/05/25 01:52:41;;;;;;;9.32;6.20;;;;;;;;;;4945404;29;20142;-59
2022/05/25 01:55:10;;;;;;;9.55;5.93;;;;;;;;;;4946769;28;20138;-59
2022/05/25 01:57:38;;;;;;;8.82;6.00;;;;;;;;;;4946445;28;20382;-59
2022/05/25 02:00:05;;;;;;;10.68;5.45;;;;;;;;;;4946401;28;20465;-59
2022/05/25 02:05:17;;;;;;;8.27;5.88;;;;;;;;;;4947037;29;20122;-59
2022/05/25 02:07:44;;;;;;;11.18;6.28;;;;;;;;;;4946749;28;20039;-59
2022/05/25 02:10:21;;;;;;;9.35;6.32;;;;;;;;;;4947086;28;20046;-59
2022/05/25 02:13:03;;;;;;;9.07;6.05;;;;;;;;;;4946637;28;20043;-60
2022/05/25 02:15:42;;;;;;;10.85;6.95;;;;;;;;;;4947712;28;20043;-59
2022/05/25 02:18:08;;;;;;;;;;;;;;;;;;4950494;28;20397;-59
2022/05/25 02:20:54;;;;;;;12.15;6.63;;;;;;;;;;4950040;28;20372;-59
2022/05/25 02:23:26;;;;;;;11.45;6.78;;;;;;;;;;4948221;29;20071;-59
2022/05/25 02:26:10;;;;;;;9.35;7.28;;;;;;;;;;4949802;28;20552;-59
2022/05/25 02:28:40;;;;;;;11.02;7.40;;;;;;;;;;4948745;28;20091;-59
2022/05/25 02:31:08;;;;;;;12.40;7.53;;;;;;;;;;4948426;29;20178;-59
2022/05/25 02:33:37;;;;;;;12.40;7.40;;;;;;;;;;4949773;28;20085;-59
2022/05/25 02:36:05;;;;;;;14.60;8.05;;;;;;;;;;4948607;29;20589;-59
2022/05/25 02:38:31;;;;;;;13.57;7.70;;;;;;;;;;4949643;28;20130;-59
2022/05/25 02:41:05;;;;;;;11.88;7.90;;;;;;;;;;4950046;28;20090;-59
2022/05/25 02:43:31;;;;;;;15.77;8.00;;;;;;;;;;4948323;28;20067;-59
2022/05/25 02:45:58;;;;;;;13.50;8.13;;;;;;;;;;4949709;28;20047;-59
2022/05/25 02:48:24;;;;;;;13.00;8.48;;;;;;;;;;4948227;29;20473;-59
2022/05/25 02:50:50;;;;;;;16.40;8.32;;;;;;;;;;4949557;28;20051;-59
2022/05/25 02:53:16;;;;;;;13.75;8.60;;;;;;;;;;4949816;28;20038;-59
2022/05/25 02:55:43;;;;;;;17.85;8.65;;;;;;;;;;4949585;28;20047;-59
2022/05/25 02:58:09;;;;;;;18.58;9.20;;;;;;;;;;4948657;28;20054;-60
2022/05/25 03:00:35;;;;;;;13.45;7.90;;;;;;;;;;4949118;28;20505;-59
2022/05/25 03:03:01;;;;;;;15.32;8.75;;;;;;;;;;4949168;28;20066;-59
2022/05/25 03:05:28;;;;;;;16.73;8.75;;;;;;;;;;4949110;28;20071;-59
2022/05/25 03:07:54;;;;;;;12.43;8.82;;;;;;;;;;4949128;28;20039;-59
2022/05/25 03:10:20;;;;;;;14.05;8.07;;;;;;;;;;4949010;28;20506;-59
2022/05/25 03:12:47;;;;;;;12.32;7.95;;;;;;;;;;4947809;29;20043;-59
2022/05/25 03:15:13;;;;;;;19.83;9.20;;;;;;;;;;4948734;28;20113;-59
2022/05/25 03:17:40;;;;;;;14.02;8.63;;;;;;;;;;4948924;28;20094;-59
2022/05/25 03:20:06;;;;;;;11.68;7.50;;;;;;;;;;4949171;28;20541;-59
2022/05/25 03:22:36;;;;;;;13.98;8.27;;;;;;;;;;4948672;28;20047;-59
2022/05/25 03:25:02;;;;;;;17.40;8.50;;;;;;;;;;4948381;28;20054;-59
2022/05/25 03:27:28;;;;;;;24.13;8.25;;;;;;;;;;4948021;28;20496;-59
2022/05/25 03:29:54;;;;;;;11.70;7.90;;;;;;;;;;4948187;28;20082;-59
2022/05/25 03:32:20;;;;;;;19.50;8.25;;;;;;;;;;4948452;28;20047;-59
2022/05/25 03:34:48;;;;;;;14.73;8.48;;;;;;;;;;4948993;28;20051;-59
2022/05/25 03:37:15;;;;;;;13.90;8.43;;;;;;;;;;4949037;28;20055;-59
2022/05/25 03:39:41;;;;;;;14.75;8.13;;;;;;;;;;4948195;28;20401;-59
2022/05/25 03:42:08;;;;;;;15.70;8.40;;;;;;;;;;4948615;28;20051;-59
2022/05/25 03:44:35;;;;;;;13.15;8.05;;;;;;;;;;4947836;28;20048;-59
2022/05/25 03:47:01;;;;;;;14.70;8.52;;;;;;;;;;4948451;28;20106;-59
2022/05/25 03:49:27;;;;;;;14.77;9.13;;;;;;;;;;4948232;28;20109;-59
2022/05/25 03:51:53;;;;;;;15.10;9.55;;;;;;;;;;4948401;28;20055;-59
2022/05/25 03:54:20;;;;;;;15.20;8.07;;;;;;;;;;4947819;28;20410;-59
2022/05/25 03:56:46;;;;;;;14.65;8.48;;;;;;;;;;4948605;28;20066;-59
2022/05/25 03:59:12;;;;;;;13.43;8.52;;;;;;;;;;4948029;28;20413;-59
2022/05/25 04:01:38;;;;;;;14.70;8.50;;;;;;;;;;4948032;28;20087;-59
2022/05/25 04:04:05;;;;;;;14.48;8.85;;;;;;;;;;4948044;28;20074;-59
2022/05/25 04:06:31;;;;;;;13.43;8.23;;;;;;;;;;4947492;28;20054;-59
2022/05/25 04:08:57;;;;;;;13.63;8.02;;;;;;;;;;4947886;28;20504;-59
2022/05/25 04:11:23;;;;;;;15.15;8.73;;;;;;;;;;4948050;28;20807;-59
2022/05/25 04:13:49;;;;;;;17.08;9.00;;;;;;;;;;4947318;28;20144;-59
2022/05/25 04:16:16;;;;;;;14.35;9.10;;;;;;;;;;4948476;28;20137;-58
2022/05/25 04:18:42;;;;;;;15.73;8.43;;;;;;;;;;4947980;28;20456;-59
2022/05/25 04:21:08;;;;;;;16.38;9.10;;;;;;;;;;4947665;28;20051;-59
2022/05/25 04:23:34;;;;;;;14.85;8.38;;;;;;;;;;4947720;28;20102;-59
2022/05/25 04:26:00;;;;;;;11.13;7.70;;;;;;;;;;4947531;28;20106;-59
2022/05/25 04:28:26;;;;;;;14.88;8.75;;;;;;;;;;4947075;28;20551;-59
2022/05/25 04:30:52;;;;;;;14.57;8.90;;;;;;;;;;4947694;28;20540;-58
2022/05/25 04:33:19;;;;;;;16.38;8.50;;;;;;;;;;4947470;28;20528;-59
2022/05/25 04:35:45;;;;;;;15.57;8.07;;;;;;;;;;4946171;29;20118;-59
2022/05/25 04:38:17;;;;;;;12.57;8.30;;;;;;;;;;4947594;28;20043;-59
2022/05/25 04:40:44;;;;;;;14.68;8.82;;;;;;;;;;4948168;28;20086;-59
2022/05/25 04:43:13;;;;;;;14.75;8.45;;;;;;;;;;4946986;28;20071;-59
2022/05/25 04:45:41;;;;;;;16.17;9.25;;;;;;;;;;4947427;28;20047;-59
2022/05/25 04:48:07;;;;;;;13.85;8.57;;;;;;;;;;4947019;28;20059;-59
2022/05/25 04:50:35;;;;;;;11.98;8.13;;;;;;;;;;4947361;28;20047;-59
2022/05/25 04:53:01;;;;;;;13.63;8.23;;;;;;;;;;4947051;28;20059;-59
2022/05/25 04:58:23;;;;;;;16.88;8.90;;;;;;;;;;4947139;29;20047;-59
2022/05/25 05:00:50;;;;;;;16.77;8.80;;;;;;;;;;4946483;29;20051;-59
2022/05/25 05:03:17;;;;;;;14.10;8.80;;;;;;;;;;4945951;29;20044;-59
2022/05/25 05:05:43;;;;;;;18.52;8.52;;;;;;;;;;4947226;28;20051;-59
2022/05/25 05:08:09;;;;;;;15.77;9.18;;;;;;;;;;4947678;28;20489;-59
2022/05/25 05:10:36;;;;;;;16.90;9.25;;;;;;;;;;4947281;29;20047;-59
2022/05/25 05:13:04;;;;;;;13.00;8.52;;;;;;;;;;4947047;29;20039;-58
2022/05/25 05:15:34;;;;;;;14.45;8.60;;;;;;;;;;4947055;29;20048;-59
2022/05/25 05:18:01;;;;;;;17.63;8.60;;;;;;;;;;4947338;29;20134;-58
2022/05/25 05:20:27;;;;;;;14.18;9.82;;;;;;;;;;4946694;29;20040;-59
2022/05/25 05:22:53;;;;;;;13.68;9.13;;;;;;;;;;4946794;29;20043;-59
2022/05/25 05:25:20;;;;;;;14.68;9.40;;;;;;;;;;4946169;29;20059;-59
2022/05/25 05:27:47;;;;;;;20.30;9.75;;;;;;;;;;4945669;29;20043;-59
2022/05/25 05:30:20;;;;;;;14.07;9.88;;;;;;;;;;4946568;29;20035;-59
2022/05/25 05:32:47;;;;;;;15.00;9.00;;;;;;;;;;4944664;29;20075;-59
2022/05/25 05:35:13;;;;;;;20.58;9.35;;;;;;;;;;4946795;29;20066;-59
2022/05/25 05:37:41;;;;;;;15.45;9.07;;;;;;;;;;4946458;29;20045;-59
2022/05/25 05:40:08;;;;;;;13.15;8.63;;;;;;;;;;4946273;29;20062;-59
2022/05/25 05:42:38;;;;;;;15.55;8.02;;;;;;;;;;4946491;29;20114;-60
2022/05/25 05:45:06;;;;;;;12.52;8.27;;;;;;;;;;4946007;28;20628;-59
2022/05/25 05:47:36;;;;;;;17.95;8.45;;;;;;;;;;4945536;29;20044;-59
2022/05/25 05:50:04;;;;;;;15.95;8.00;;;;;;;;;;4948481;28;20489;-59
2022/05/25 05:52:30;;;;;;;19.92;10.52;;;;;;;;;;4948250;29;20174;-59
2022/05/25 05:54:57;;;;;;;17.23;10.65;;;;;;;;;;4948965;28;20726;-59
2022/05/25 05:57:24;;;;;;;18.83;10.40;;;;;;;;;;4949406;29;20055;-61
2022/05/25 05:59:50;;;;;;;14.70;8.93;;;;;;;;;;4948984;29;20295;-59
2022/05/25 06:02:16;;;;;;;17.45;8.80;;;;;;;;;;4949855;29;20433;-58
2022/05/25 06:04:42;;;;;;;17.30;9.88;;;;;;;;;;4949981;29;20035;-59
2022/05/25 06:07:08;;;;;;;25.02;9.73;;;;;;;;;;4949675;29;20049;-59
2022/05/25 06:09:35;;;;;;;20.73;10.32;;;;;;;;;;4949435;29;20417;-59
2022/05/25 06:12:01;;;;;;;15.85;8.98;;;;;;;;;;4948576;28;20047;-59
2022/05/25 06:14:27;;;;;;;19.33;9.30;;;;;;;;;;4949136;29;20035;-59
2022/05/25 06:19:38;;;;;;;15.32;8.30;;;;;;;;;;4949284;29;20147;-59
2022/05/25 06:22:08;;;;;;;16.35;9.00;;;;;;;;;;4949681;28;20062;-59
2022/05/25 06:24:37;;;;;;;14.27;9.18;;;;;;;;;;4943898;28;20115;-59
2022/05/25 06:27:04;;;;;;;22.65;9.57;;;;;;;;;;4944097;28;20047;-59
2022/05/25 06:29:30;;;;;;;16.88;9.05;;;;;;;;;;4947111;29;20043;-58
2022/05/25 06:34:14;;;;;;;14.50;8.40;;;;;;;;;;5155849;27;20144;-59
2022/05/25 06:36:41;;;;;;;17.90;9.32;;;;;;;;;;5153248;27;20067;-58
2022/05/25 06:39:08;;;;;;;16.00;8.55;;;;;;;;;;5155139;27;20078;-58
2022/05/25 06:41:34;;;;;;;14.82;9.45;;;;;;;;;;5154574;27;20030;-58
2022/05/25 06:44:01;;;;;;;22.38;8.95;;;;;;;;;;5134534;27;20043;-58
2022/05/25 06:46:27;;;;;;;15.52;9.98;;;;;;;;;;5156138;27;20049;-58
2022/05/25 06:48:54;;;;;;;19.20;8.85;;;;;;;;;;5155794;27;20027;-58
2022/05/25 06:51:22;;;;;;;17.90;8.52;;;;;;;;;;5153119;27;20499;-58
2022/05/25 06:53:49;;;;;;;17.02;8.25;;;;;;;;;;5152662;27;20122;-58
2022/05/25 06:56:16;;;;;;;18.20;8.30;;;;;;;;;;5156053;27;20038;-58
2022/05/25 06:58:43;;;;;;;13.57;7.47;;;;;;;;;;5163116;27;20074;-58
2022/05/25 07:01:09;;;;;;;22.25;8.80;;;;;;;;;;5146073;27;20118;-58
2022/05/25 07:03:38;;;;;;;20.13;7.50;;;;;;;;;;5143963;27;20035;-58
2022/05/25 07:06:06;;;;;;;14.65;7.85;;;;;;;;;;5144438;27;20047;-58
2022/05/25 07:08:32;;;;;;;16.83;8.07;;;;;;;;;;5144129;27;20091;-59
2022/05/25 07:11:00;;;;;;;16.80;8.60;;;;;;;;;;5161437;27;20035;-59
2022/05/25 07:13:27;;;;;;;13.50;8.52;;;;;;;;;;5162371;27;20110;-58
2022/05/25 07:15:58;;;;;;;21.73;9.18;;;;;;;;;;5145038;27;20078;-59
2022/05/25 07:18:26;;;;;;;26.58;10.63;;;;;;;;;;5163829;27;20679;-59
2022/05/25 07:20:52;;;;;;;19.45;8.13;;;;;;;;;;5144860;27;20077;-57
2022/05/25 07:23:19;;;;;;;13.18;7.30;;;;;;;;;;5143925;27;20035;-59
2022/05/25 07:25:46;;;;;;;15.77;7.32;;;;;;;;;;5143174;27;20472;-58
2022/05/25 07:28:12;;;;;;;16.65;7.32;;;;;;;;;;5125116;27;20035;-58
2022/05/25 07:30:39;;;;;;;14.40;7.20;;;;;;;;;;5160331;27;20030;-58
2022/05/25 07:33:06;;;;;;;13.10;7.43;;;;;;;;;;5154395;27;20110;-58
2022/05/25 07:35:32;;;;;;;13.75;7.50;;;;;;;;;;5143236;27;20631;-58
2022/05/25 07:37:58;;;;;;;10.93;7.35;;;;;;;;;;5143717;27;20096;-58
2022/05/25 07:40:29;;;;;;;13.75;6.85;;;;;;;;;;5160883;27;20063;-58
2022/05/25 07:42:57;;;;;;;11.75;6.85;;;;;;;;;;5161525;27;20119;-58
2022/05/25 07:45:24;;;;;;;15.77;6.40;;;;;;;;;;5149855;27;20042;-59
2022/05/25 07:47:53;;;;;;;11.07;6.70;;;;;;;;;;5148747;27;20050;-58
2022/05/25 07:50:20;;;;;;;12.68;6.88;;;;;;;;;;5128916;27;20054;-58
2022/05/25 07:52:46;;;;;;;12.73;7.25;;;;;;;;;;5129536;27;20400;-58
2022/05/25 07:55:12;;;;;;;9.82;5.28;;;;;;;;;;5129451;27;20606;-57
2022/05/25 07:57:39;;;;;;;11.10;5.60;;;;;;;;;;5128358;27;20427;-58
2022/05/25 08:00:06;;;;;;;20.73;7.45;;;;;;;;;;5144973;27;20046;-58
2022/05/25 08:08:05;;;;;;;8.02;5.30;;;;;;;;;;5144037;27;20079;-57
2022/05/25 08:10:31;;;;;;;9.73;4.88;;;;;;;;;;5130131;27;20605;-57
2022/05/25 08:12:59;;;;;;;20.73;6.03;;;;;;;;;;5128592;27;20229;-58
2022/05/25 08:15:26;;;;;;;9.35;4.75;;;;;;;;;;5128861;27;20031;-58
2022/05/25 08:17:52;;;;;;;7.25;4.63;;;;;;;;;;5132835;27;20065;-58
2022/05/25 08:20:19;;;;;;;7.40;4.32;;;;;;;;;;5148364;27;20511;-58
2022/05/25 08:22:45;;;;;;;8.82;4.80;;;;;;;;;;5148466;27;20117;-58
2022/05/25 08:25:13;;;;;;;6.32;4.15;;;;;;;;;;5147976;27;20148;-59
2022/05/25 08:27:39;;;;;;;11.00;3.60;;;;;;;;;;5143334;27;20523;-58
2022/05/25 08:30:07;;;;;;;15.18;7.00;;;;;;;;;;5128890;27;20479;-59
2022/05/25 08:32:33;;;;;;;14.10;4.78;;;;;;;;;;5128047;27;20039;-59
2022/05/25 08:34:59;;;;;;;9.55;4.32;;;;;;;;;;5128740;27;20126;-58
2022/05/25 08:37:25;;;;;;;5.88;3.47;;;;;;;;;;5131717;27;20144;-58
2022/05/25 08:39:51;;;;;;;9.02;3.88;;;;;;;;;;5148146;27;20117;-58
2022/05/25 08:42:19;;;;;;;6.00;3.38;;;;;;;;;;5146333;27;20042;-58
2022/05/25 08:44:47;;;;;;;6.10;3.63;;;;;;;;;;5148266;27;20041;-58
2022/05/25 08:47:13;;;;;;;8.25;3.20;;;;;;;;;;5146919;27;20039;-58
2022/05/25 08:49:42;;;;;;;5.05;3.08;;;;;;;;;;5129029;27;20078;-58
2022/05/25 08:52:18;;;;;;;5.97;2.92;;;;;;;;;;5147750;27;20050;-58
2022/05/25 08:54:44;;;;;;;9.07;2.50;;;;;;;;;;5148392;27;20095;-58
2022/05/25 08:57:20;;;;;;;5.45;3.20;;;;;;;;;;5115050;27;20038;-58
2022/05/25 08:59:50;;;;;;;5.70;2.38;;;;;;;;;;5147854;27;20072;-58
2022/05/25 09:02:23;;;;;;;7.45;2.97;;;;;;;;;;5147367;27;20122;-58
2022/05/25 09:04:52;;;;;;;8.15;3.30;;;;;;;;;;5147594;27;20035;-58
2022/05/25 09:07:25;;;;;;;8.43;5.75;;;;;;;;;;5138592;27;20032;-59
2022/05/25 09:09:52;;;;;;;19.20;9.90;;;;;;;;;;5128150;27;20039;-58
2022/05/25 09:12:22;;;;;;;7.85;4.20;;;;;;;;;;5126965;27;20038;-59
2022/05/25 09:14:56;;;;;;;8.45;4.38;;;;;;;;;;5127683;27;20103;-58
2022/05/25 09:17:26;;;;;;;12.43;3.85;;;;;;;;;;5138003;27;20106;-57
2022/05/25 09:19:53;;;;;;;6.95;2.65;;;;;;;;;;5147210;27;20053;-58
2022/05/25 09:22:21;;;;;;;5.28;2.60;;;;;;;;;;5146487;27;20034;-58
2022/05/25 09:24:48;;;;;;;3.05;1.77;;;;;;;;;;5145361;27;20605;-58
2022/05/25 09:27:16;;;;;;;8.82;4.00;;;;;;;;;;5135160;27;20039;-58
2022/05/25 09:29:44;;;;;;;5.43;2.30;;;;;;;;;;5127914;27;20061;-58
2022/05/25 09:32:29;;;;;;;4.95;2.22;;;;;;;;;;5127511;27;20312;-58
2022/05/25 09:35:01;;;;;;;4.07;3.00;;;;;;;;;;5127258;27;20051;-58
2022/05/25 09:37:28;;;;;;;5.70;2.67;;;;;;;;;;5141819;27;20518;-59
2022/05/25 09:39:54;;;;;;;8.15;3.05;;;;;;;;;;5146349;27;20030;-58
2022/05/25 09:42:21;;;;;;;9.10;2.85;;;;;;;;;;5145617;27;20034;-59
2022/05/25 09:44:52;;;;;;;5.82;3.08;;;;;;;;;;5146954;27;20030;-59
2022/05/25 09:47:23;;;;;;;10.05;2.75;;;;;;;;;;5131521;27;20046;-59
2022/05/25 09:49:49;;;;;;;4.95;2.47;;;;;;;;;;5127054;27;20035;-58
2022/05/25 09:52:19;;;;;;;15.65;7.88;;;;;;;;;;5127395;27;20072;-58
2022/05/25 09:54:49;;;;;;;8.93;2.97;;;;;;;;;;5127670;27;20047;-58
2022/05/25 09:57:26;;;;;;;17.65;4.38;;;;;;;;;;5142629;27;20094;-58
2022/05/25 10:00:00;;;;;;;16.10;4.85;;;;;;;;;;5146827;27;20035;-58
2022/05/25 10:02:36;;;;;;;10.45;3.13;;;;;;;;;;5134279;27;20039;-58
2022/05/25 10:05:14;;;;;;;5.55;2.90;;;;;;;;;;5143630;27;20058;-58
2022/05/25 10:07:51;;;;;;;7.10;3.17;;;;;;;;;;5126767;27;20050;-58
2022/05/25 10:10:23;;;;;;;8.40;3.25;;;;;;;;;;5126383;27;20075;-58
2022/05/25 10:12:58;;;;;;;4.32;3.30;;;;;;;;;;5126094;27;20144;-58
2022/05/25 10:15:30;;;;;;;7.65;2.92;;;;;;;;;;5130459;27;20049;-58
2022/05/25 10:17:56;;;;;;;5.93;3.35;;;;;;;;;;5146246;27;20050;-58
2022/05/25 10:20:22;;;;;;;8.57;3.88;;;;;;;;;;5143608;27;20062;-58
2022/05/25 10:22:51;;;;;;;6.65;3.22;;;;;;;;;;5125969;27;20062;-58
2022/05/25 10:25:29;;;;;;;9.48;4.35;;;;;;;;;;5130175;27;20372;-59
2022/05/25 10:27:55;;;;;;;;;;;;;;;;;;5145208;27;20043;-58
2022/05/25 10:39:24;;;;;;;7.97;3.30;;;;;;;;;;5142529;27;20066;-59
2022/05/25 10:42:03;;;;;;;5.03;3.13;;;;;;;;;;5144544;27;20041;-59
2022/05/25 10:44:34;;;;;;;3.92;3.20;;;;;;;;;;5141264;27;20117;-59
2022/05/25 10:47:00;;;;;;;6.00;3.70;;;;;;;;;;5140466;27;20043;-58
2022/05/25 10:49:37;;;;;;;7.80;3.05;;;;;;;;;;5143601;27;20058;-59
2022/05/25 10:52:13;;;;;;;3.92;3.10;;;;;;;;;;5142251;27;20130;-58
2022/05/25 10:54:47;;;;;;;5.85;3.28;;;;;;;;;;5136815;27;20100;-59
2022/05/25 10:57:22;;;;;;;5.53;3.67;;;;;;;;;;5140123;27;21213;-58
2022/05/25 10:59:58;;;;;;;6.75;3.88;;;;;;;;;;5143649;27;20518;-59
2022/05/25 11:02:43;;;;;;;6.53;3.33;;;;;;;;;;5136270;27;20043;-59
2022/05/25 11:05:12;;;;;;;7.72;2.42;;;;;;;;;;5134468;27;20639;-58
2022/05/25 11:07:40;;;;;;;7.50;2.53;;;;;;;;;;5126200;27;20042;-59
2022/05/25 11:10:08;;;;;;;5.93;2.77;;;;;;;;;;5126138;27;20051;-59
2022/05/25 11:12:47;;;;;;;7.10;4.45;;;;;;;;;;5124972;27;20651;-59
2022/05/25 11:15:24;;;;;;;16.27;4.28;;;;;;;;;;5130856;27;20066;-59
2022/05/25 11:17:51;;;;;;;5.63;3.35;;;;;;;;;;5126161;27;20051;-59
2022/05/25 11:20:38;;;;;;;6.53;3.13;;;;;;;;;;5110586;27;20412;-59
2022/05/25 11:23:04;;;;;;;7.03;4.40;;;;;;;;;;5147806;27;20042;-59
2022/05/25 11:25:42;;;;;;;10.52;5.72;;;;;;;;;;5132473;27;20043;-58
2022/05/25 11:28:13;;;;;;;7.22;5.50;;;;;;;;;;5145696;27;20070;-58
2022/05/25 11:30:47;;;;;;;7.13;3.78;;;;;;;;;;5149275;27;20475;-58
2022/05/25 11:33:19;;;;;;;10.60;4.70;;;;;;;;;;5131215;27;20145;-59
2022/05/25 11:35:57;;;;;;;7.55;4.38;;;;;;;;;;5130175;27;20603;-58
2022/05/25 11:38:23;;;;;;;10.03;5.53;;;;;;;;;;5129504;27;20118;-59
2022/05/25 11:40:50;;;;;;;7.00;5.10;;;;;;;;;;5139841;27;20108;-59
2022/05/25 11:43:32;;;;;;;12.65;5.72;;;;;;;;;;5149640;27;20049;-59
2022/05/25 11:46:12;;;;;;;6.90;5.55;;;;;;;;;;5150298;27;20045;-59
2022/05/25 11:48:48;;;;;;;7.95;5.40;;;;;;;;;;5149993;27;20039;-59
2022/05/25 11:51:14;;;;;;;6.93;3.50;;;;;;;;;;5150495;27;20049;-58
2022/05/25 11:53:51;;;;;;;9.68;3.13;;;;;;;;;;5149508;27;20096;-59
2022/05/25 11:56:21;;;;;;;27.85;6.35;;;;;;;;;;5148975;27;20185;-59
2022/05/25 11:58:55;;;;;;;14.88;6.15;;;;;;;;;;5149258;27;20063;-58
2022/05/25 12:01:26;;;;;;;15.30;6.45;;;;;;;;;;5149376;27;20047;-59
2022/05/25 12:03:52;;;;;;;11.48;7.25;;;;;;;;;;5149746;27;20041;-59
2022/05/25 12:06:25;;;;;;;12.68;7.80;;;;;;;;;;5148736;27;20070;-59
2022/05/25 12:09:00;;;;;;;10.63;7.57;;;;;;;;;;5149593;27;20039;-59
2022/05/25 12:11:39;;;;;;;11.95;7.72;;;;;;;;;;5149388;27;20164;-59
2022/05/25 12:14:05;;;;;;;;;;;;;;;;;;5149272;27;20043;-58
2022/05/25 12:16:35;;;;;;;12.20;7.28;;;;;;;;;;5149421;27;20439;-58
2022/05/25 12:19:05;;;;;;;9.70;6.72;;;;;;;;;;5149241;27;20564;-58
2022/05/25 12:21:34;;;;;;;13.05;8.02;;;;;;;;;;5149294;27;20046;-58
2022/05/25 12:24:00;;;;;;;;;;;;;;;;;;5149636;27;20057;-58
2022/05/25 12:26:28;;;;;;;12.85;9.32;;;;;;;;;;5148053;27;19919;-58
2022/05/25 12:29:00;;;;;;;13.18;6.35;;;;;;;;;;5148535;27;20070;-58
2022/05/25 12:31:28;;;;;;;11.85;7.03;;;;;;;;;;5148669;27;20035;-58
2022/05/25 12:33:54;;;;;;;;;;;;;;;;;;5149473;27;20078;-58
2022/05/25 12:36:21;;;;;;;9.45;7.05;;;;;;;;;;5148807;27;19923;-58
2022/05/25 12:38:47;;;;;;;11.40;6.72;;;;;;;;;;5148276;27;20043;-59
2022/05/25 12:41:26;;;;;;;10.30;6.95;;;;;;;;;;5149525;27;20082;-58
2022/05/25 12:43:55;;;;;;;8.93;5.35;;;;;;;;;;5147988;27;20039;-57
2022/05/25 12:49:07;;;;;;;11.88;4.57;;;;;;;;;;5148690;27;19919;-58
2022/05/25 12:51:36;;;;;;;9.63;4.10;;;;;;;;;;5148290;27;20599;-58
2022/05/25 12:54:05;;;;;;;13.18;3.25;;;;;;;;;;5148642;27;20066;-58
2022/05/25 12:56:32;;;;;;;15.85;2.92;;;;;;;;;;5148013;27;20476;-58
2022/05/25 12:59:08;;;;;;;11.88;2.00;;;;;;;;;;5147770;27;20446;-58
2022/05/25 13:01:36;;;;;;;5.80;1.63;;;;;;;;;;5147960;27;20142;-58
2022/05/25 13:04:09;;;;;;;10.25;1.60;;;;;;;;;;5148505;27;20043;-58
2022/05/25 13:06:37;;;;;;;8.85;1.23;;;;;;;;;;5148247;27;20050;-58
2022/05/25 13:09:08;;;;;;;9.17;1.50;;;;;;;;;;5148041;27;20156;-58
2022/05/25 13:11:51;;;;;;;7.15;1.77;;;;;;;;;;5147145;27;20053;-60
2022/05/25 13:14:17;;;;;;;9.23;1.27;;;;;;;;;;5145667;27;20070;-59
2022/05/25 13:19:17;;;;;;;8.05;1.10;;;;;;;;;;5143520;27;20057;-59
2022/05/25 13:21:45;;;;;;;4.50;1.08;;;;;;;;;;5141431;27;20476;-58
2022/05/25 13:24:21;;;;;;;4.18;0.95;;;;;;;;;;5143587;27;20052;-58
2022/05/25 13:26:51;;;;;;;3.72;0.63;;;;;;;;;;5141067;27;20038;-59
2022/05/25 13:29:23;;;;;;;2.85;0.60;;;;;;;;;;5141996;27;20053;-59
2022/05/25 13:31:55;;;;;;;3.97;0.73;;;;;;;;;;5147294;27;20079;-59
2022/05/25 13:34:21;;;;;;;3.83;0.65;;;;;;;;;;5137883;27;20043;-59
2022/05/25 13:36:55;;;;;;;9.30;0.80;;;;;;;;;;5126799;27;20084;-59
2022/05/25 13:39:23;;;;;;;5.05;0.60;;;;;;;;;;5125873;27;20097;-59
2022/05/25 13:41:52;;;;;;;3.53;0.70;;;;;;;;;;5125982;27;20050;-59
2022/05/25 13:44:22;;;;;;;7.22;0.82;;;;;;;;;;5126751;27;20043;-59
2022/05/25 13:46:55;;;;;;;4.63;0.82;;;;;;;;;;5126990;27;20039;-59
2022/05/25 13:49:25;;;;;;;4.60;0.70;;;;;;;;;;5126453;27;20043;-58
2022/05/25 13:51:51;;;;;;;3.55;0.57;;;;;;;;;;5127086;27;20047;-59
2022/05/25 13:54:20;;;;;;;7.28;1.10;;;;;;;;;;5126518;27;20118;-59
2022/05/25 13:56:46;;;;;;;4.88;0.60;;;;;;;;;;5126056;27;20043;-58
2022/05/25 13:59:13;;;;;;;2.88;0.60;;;;;;;;;;5127255;27;20043;-59
2022/05/25 14:01:39;;;;;;;5.68;0.80;;;;;;;;;;5108171;27;20392;-59
2022/05/25 14:04:06;;;;;;;9.50;0.90;;;;;;;;;;5126367;27;20096;-59
2022/05/25 14:06:39;;;;;;;4.93;0.60;;;;;;;;;;5126768;27;20106;-59
2022/05/25 14:11:51;;;;;;;2.60;0.95;;;;;;;;;;5125759;27;20047;-59
2022/05/25 14:14:29;;;;;;;7.20;1.00;;;;;;;;;;5126115;27;20046;-59
2022/05/25 14:16:57;;;;;;;5.93;0.60;;;;;;;;;;5126645;27;20043;-58
2022/05/25 14:19:26;;;;;;;6.28;0.82;;;;;;;;;;5126629;27;20317;-58
2022/05/25 14:21:54;;;;;;;6.53;0.80;;;;;;;;;;5126144;27;20039;-59
2022/05/25 14:24:28;;;;;;;7.80;0.80;;;;;;;;;;5126453;27;20082;-59
2022/05/25 14:26:56;;;;;;;3.63;1.00;;;;;;;;;;5125362;27;20605;-59
2022/05/25 14:29:24;;;;;;;4.10;0.80;;;;;;;;;;5126211;27;20533;-59
2022/05/25 14:31:52;;;;;;;3.58;0.50;;;;;;;;;;5126478;27;20069;-59
2022/05/25 14:34:20;;;;;;;5.78;0.80;;;;;;;;;;5125406;28;20066;-59
2022/05/25 14:36:48;;;;;;;5.45;1.05;;;;;;;;;;5126634;28;20095;-59
2022/05/25 14:39:16;;;;;;;6.55;0.80;;;;;;;;;;5126634;28;20085;-58
2022/05/25 14:41:50;;;;;;;5.13;0.88;;;;;;;;;;5125448;28;20039;-59
2022/05/25 14:44:33;;;;;;;5.18;1.00;;;;;;;;;;5126580;28;20040;-58
2022/05/25 14:46:59;;;;;;;3.20;0.50;;;;;;;;;;5125904;28;20043;-59
2022/05/25 14:49:25;;;;;;;5.00;0.63;;;;;;;;;;5126078;27;20039;-59
2022/05/25 14:51:51;;;;;;;2.80;0.50;;;;;;;;;;5125931;28;20050;-59
2022/05/25 14:54:22;;;;;;;1.95;0.50;;;;;;;;;;5127001;27;20047;-57
2022/05/25 14:56:49;;;;;;;2.50;1.02;;;;;;;;;;5129361;27;20377;-59
2022/05/25 14:59:26;;;;;;;4.65;0.70;;;;;;;;;;5130590;27;20138;-58
2022/05/25 15:01:57;;;;;;;4.35;0.60;;;;;;;;;;5130145;27;20422;-59
2022/05/25 15:04:31;;;;;;;6.38;0.50;;;;;;;;;;5130029;27;20043;-59
2022/05/25 15:06:57;;;;;;;3.95;0.77;;;;;;;;;;5129978;27;20047;-57
2022/05/25 15:09:25;;;;;;;7.78;1.27;;;;;;;;;;5130077;27;20591;-59
2022/05/25 15:12:02;;;;;;;8.88;1.17;;;;;;;;;;5129298;27;20046;-58
2022/05/25 15:20:09;;;;;;;8.93;0.93;;;;;;;;;;5111091;27;20675;-59
2022/05/25 15:22:39;;;;;;;4.68;0.70;;;;;;;;;;5147597;27;20049;-59
2022/05/25 15:25:07;;;;;;;4.40;0.77;;;;;;;;;;5142776;27;20066;-58
2022/05/25 15:27:37;;;;;;;8.77;1.08;;;;;;;;;;5148871;27;20038;-58
2022/05/25 15:30:04;;;;;;;8.68;1.10;;;;;;;;;;5150216;27;20046;-58
2022/05/25 15:32:30;;;;;;;5.20;1.20;;;;;;;;;;5149274;27;20072;-59